createdAt,value
2023-02-27T00:14:18.156Z,78.58
2023-02-27T00:44:18.165Z,78.64
2023-02-27T01:14:18.190Z,78.79
2023-02-27T01:44:18.181Z,78.84
2023-02-27T02:14:18.195Z,79.01
2023-02-27T02:44:18.197Z,78.99
2023-02-27T03:14:18.235Z,79.05
2023-02-27T03:44:18.196Z,79.3
2023-02-27T04:14:18.209Z,79.41
2023-02-27T04:44:18.242Z,79.5
2023-02-27T05:14:18.232Z,79.65
2023-02-27T05:44:18.235Z,79.6
2023-02-27T06:14:18.246Z,79.77
2023-02-27T06:44:19.564Z,80.05
2023-02-27T07:14:18.253Z,80.22
2023-02-27T07:44:18.251Z,80.31
2023-02-27T08:14:18.263Z,79.95
2023-02-27T08:44:18.238Z,80
2023-02-27T09:14:18.282Z,79.54
2023-02-27T09:44:18.255Z,79.09
2023-02-27T10:14:18.257Z,78.74
2023-02-27T10:44:18.273Z,77.9
2023-02-27T11:14:18.287Z,76.68
2023-02-27T11:44:18.284Z,75.45
2023-02-27T12:14:18.335Z,75.3
2023-02-27T12:44:18.296Z,74.61
2023-02-27T13:14:18.308Z,73.33
2023-02-27T13:44:18.307Z,71.24
2023-02-27T14:14:18.335Z,69.65
2023-02-27T14:44:18.306Z,68.12
2023-02-27T15:14:18.317Z,67.57
2023-02-27T15:44:18.324Z,68.67
2023-02-27T16:14:18.331Z,68.9
2023-02-27T16:44:18.329Z,68.86
2023-02-27T17:14:18.341Z,68.92
2023-02-27T17:44:18.378Z,69.58
2023-02-27T18:14:18.363Z,69.85
2023-02-27T18:44:18.384Z,70.19
2023-02-27T19:14:18.365Z,71.05
2023-02-27T19:44:18.377Z,71.21
2023-02-27T20:14:18.376Z,71.18
2023-02-27T20:44:18.386Z,71.5
2023-02-27T21:14:18.390Z,71.68
2023-02-27T21:44:18.397Z,71.95
2023-02-27T22:14:18.396Z,72.02
2023-02-27T22:44:18.388Z,72.23
2023-02-27T23:14:18.392Z,72.39
2023-02-27T23:44:18.394Z,72.62
